sensor_id;sensor_type;location;lat;lon;timestamp;pressure;altitude;pressure_sealevel;temperature;humidity
3122;BME280;1571;52.524;14.104;2023-04-24T00:01:20;99863.38;;;9.25;100.00
3122;BME280;1571;52.524;14.104;2023-04-24T00:03:49;99856.84;;;9.18;100.00
3122;BME280;1571;52.524;14.104;2023-04-24T00:06:17;99850.78;;;9.16;100.00
3122;BME280;1571;52.524;14.104;2023-04-24T00:08:46;99836.22;;;9.10;100.00
3122;BME280;1571;52.524;14.104;2023-04-24T00:11:14;99847.78;;;8.96;100.00
3122;BME280;1571;52.524;14.104;2023-04-24T00:13:42;99838.03;;;8.84;100.00
3122;BME280;1571;52.524;14.104;2023-04-24T00:16:11;99834.22;;;8.88;100.00
3122;BME280;1571;52.524;14.104;2023-04-24T00:18:40;99829.88;;;8.87;100.00
3122;BME280;1571;52.524;14.104;2023-04-24T00:21:08;99843.00;;;8.89;100.00
3122;BME280;1571;52.524;14.104;2023-04-24T00:23:36;99839.91;;;9.08;100.00
3122;BME280;1571;52.524;14.104;2023-04-24T00:26:04;99838.88;;;8.72;100.00
3122;BME280;1571;52.524;14.104;2023-04-24T00:28:32;99836.63;;;8.91;100.00
3122;BME280;1571;52.524;14.104;2023-04-24T00:31:03;99831.47;;;8.90;100.00
3122;BME280;1571;52.524;14.104;2023-04-24T00:33:33;99828.72;;;8.79;100.00
3122;BME280;1571;52.524;14.104;2023-04-24T00:36:01;99814.44;;;8.81;100.00
3122;BME280;1571;52.524;14.104;2023-04-24T00:38:29;99811.13;;;8.90;100.00
3122;BME280;1571;52.524;14.104;2023-04-24T00:40:57;99806.16;;;8.99;100.00
3122;BME280;1571;52.524;14.104;2023-04-24T00:43:26;99796.94;;;8.91;100.00
3122;BME280;1571;52.524;14.104;2023-04-24T00:45:54;99798.88;;;8.89;100.00
3122;BME280;1571;52.524;14.104;2023-04-24T00:48:23;99788.69;;;8.83;100.00
3122;BME280;1571;52.524;14.104;2023-04-24T00:50:54;99784.38;;;8.69;100.00
3122;BME280;1571;52.524;14.104;2023-04-24T00:53:22;99779.69;;;8.34;100.00
3122;BME280;1571;52.524;14.104;2023-04-24T00:55:51;99786.69;;;8.48;100.00
3122;BME280;1571;52.524;14.104;2023-04-24T00:58:19;99790.19;;;8.62;100.00
3122;BME280;1571;52.524;14.104;2023-04-24T01:00:48;99780.44;;;8.62;100.00
3122;BME280;1571;52.524;14.104;2023-04-24T01:03:17;99781.59;;;8.71;100.00
3122;BME280;1571;52.524;14.104;2023-04-24T01:05:47;99779.31;;;8.53;100.00
3122;BME280;1571;52.524;14.104;2023-04-24T01:08:17;99785.31;;;8.55;100.00
3122;BME280;1571;52.524;14.104;2023-04-24T01:10:46;99781.50;;;8.60;100.00
3122;BME280;1571;52.524;14.104;2023-04-24T01:13:15;99781.50;;;8.60;100.00
3122;BME280;1571;52.524;14.104;2023-04-24T01:15:44;99774.81;;;8.67;100.00
3122;BME280;1571;52.524;14.104;2023-04-24T01:18:13;99765.22;;;8.66;100.00
3122;BME280;1571;52.524;14.104;2023-04-24T01:20:42;99758.66;;;8.71;100.00
3122;BME280;1571;52.524;14.104;2023-04-24T01:23:13;99767.97;;;8.64;100.00
3122;BME280;1571;52.524;14.104;2023-04-24T01:25:44;99769.19;;;8.33;100.00
3122;BME280;1571;52.524;14.104;2023-04-24T01:28:12;99759.69;;;8.30;100.00
3122;BME280;1571;52.524;14.104;2023-04-24T01:30:41;99770.50;;;8.66;100.00
3122;BME280;1571;52.524;14.104;2023-04-24T01:33:09;99758.66;;;8.59;100.00
3122;BME280;1571;52.524;14.104;2023-04-24T01:35:38;99761.00;;;8.63;100.00
3122;BME280;1571;52.524;14.104;2023-04-24T01:38:06;99762.66;;;8.77;100.00
3122;BME280;1571;52.524;14.104;2023-04-24T01:40:38;99751.88;;;8.54;100.00
3122;BME280;1571;52.524;14.104;2023-04-24T01:43:06;99751.88;;;8.54;100.00
3122;BME280;1571;52.524;14.104;2023-04-24T01:45:35;99756.53;;;8.38;100.00
3122;BME280;1571;52.524;14.104;2023-04-24T01:48:04;99749.78;;;8.47;100.00
3122;BME280;1571;52.524;14.104;2023-04-24T01:50:32;99762.88;;;8.36;100.00
3122;BME280;1571;52.524;14.104;2023-04-24T01:53:00;99761.81;;;8.25;100.00
3122;BME280;1571;52.524;14.104;2023-04-24T01:55:29;99764.91;;;8.45;100.00
3122;BME280;1571;52.524;14.104;2023-04-24T01:57:59;99766.47;;;8.73;100.00
3122;BME280;1571;52.524;14.104;2023-04-24T02:00:27;99761.25;;;8.84;100.00
3122;BME280;1571;52.524;14.104;2023-04-24T02:02:56;99759.06;;;8.78;100.00
3122;BME280;1571;52.524;14.104;2023-04-24T02:05:26;99757.38;;;8.77;100.00
3122;BME280;1571;52.524;14.104;2023-04-24T02:07:55;99751.22;;;8.77;100.00
3122;BME280;1571;52.524;14.104;2023-04-24T02:10:23;99737.41;;;8.47;100.00
3122;BME280;1571;52.524;14.104;2023-04-24T02:12:52;99740.56;;;8.65;100.00
3122;BME280;1571;52.524;14.104;2023-04-24T02:15:25;99739.63;;;8.53;100.00
3122;BME280;1571;52.524;14.104;2023-04-24T02:17:53;99731.56;;;8.68;100.00
3122;BME280;1571;52.524;14.104;2023-04-24T02:20:21;99722.44;;;8.72;100.00
3122;BME280;1571;52.524;14.104;2023-04-24T02:22:49;99731.88;;;8.63;100.00
3122;BME280;1571;52.524;14.104;2023-04-24T02:25:17;99730.06;;;8.64;100.00
3122;BME280;1571;52.524;14.104;2023-04-24T02:27:46;99727.09;;;8.68;100.00
3122;BME280;1571;52.524;14.104;2023-04-24T02:30:14;99717.28;;;8.58;100.00
3122;BME280;1571;52.524;14.104;2023-04-24T02:32:43;99715.09;;;8.51;100.00
3122;BME280;1571;52.524;14.104;2023-04-24T02:35:12;99708.06;;;8.63;100.00
3122;BME280;1571;52.524;14.104;2023-04-24T02:37:40;99713.13;;;8.28;100.00
3122;BME280;1571;52.524;14.104;2023-04-24T02:40:11;99708.50;;;8.44;100.00
3122;BME280;1571;52.524;14.104;2023-04-24T02:42:40;99704.69;;;8.36;100.00
3122;BME280;1571;52.524;14.104;2023-04-24T02:45:09;99701.41;;;8.06;100.00
3122;BME280;1571;52.524;14.104;2023-04-24T02:47:37;99696.56;;;8.13;100.00
3122;BME280;1571;52.524;14.104;2023-04-24T02:50:08;99705.97;;;8.43;100.00
3122;BME280;1571;52.524;14.104;2023-04-24T02:52:36;99706.16;;;8.01;100.00
3122;BME280;1571;52.524;14.104;2023-04-24T02:55:05;99710.41;;;8.29;100.00
3122;BME280;1571;52.524;14.104;2023-04-24T02:57:35;99707.53;;;7.94;100.00
3122;BME280;1571;52.524;14.104;2023-04-24T03:00:04;99716.78;;;7.74;100.00
3122;BME280;1571;52.524;14.104;2023-04-24T03:02:34;99715.50;;;8.20;100.00
3122;BME280;1571;52.524;14.104;2023-04-24T03:05:03;99714.44;;;8.22;100.00
3122;BME280;1571;52.524;14.104;2023-04-24T03:07:33;99718.63;;;7.86;100.00
3122;BME280;1571;52.524;14.104;2023-04-24T03:10:01;99730.44;;;7.81;100.00
3122;BME280;1571;52.524;14.104;2023-04-24T03:12:29;99720.97;;;8.17;100.00
3122;BME280;1571;52.524;14.104;2023-04-24T03:14:57;99721.59;;;8.33;100.00
3122;BME280;1571;52.524;14.104;2023-04-24T03:17:25;99715.72;;;8.42;100.00
3122;BME280;1571;52.524;14.104;2023-04-24T03:19:53;99710.63;;;8.52;100.00
3122;BME280;1571;52.524;14.104;2023-04-24T03:22:22;99710.31;;;8.44;100.00
3122;BME280;1571;52.524;14.104;2023-04-24T03:24:53;99714.84;;;8.67;100.00
3122;BME280;1571;52.524;14.104;2023-04-24T03:27:22;99719.59;;;8.75;100.00
3122;BME280;1571;52.524;14.104;2023-04-24T03:29:56;99719.00;;;8.95;100.00
3122;BME280;1571;52.524;14.104;2023-04-24T03:32:32;99734.63;;;9.11;100.00
3122;BME280;1571;52.524;14.104;2023-04-24T03:35:01;99739.78;;;9.26;100.00
3122;BME280;1571;52.524;14.104;2023-04-24T03:37:30;99740.25;;;9.44;100.00
3122;BME280;1571;52.524;14.104;2023-04-24T03:40:25;99734.00;;;9.56;100.00
3122;BME280;1571;52.524;14.104;2023-04-24T03:42:56;99744.16;;;9.62;100.00
3122;BME280;1571;52.524;14.104;2023-04-24T03:45:24;99736.47;;;9.70;100.00
3122;BME280;1571;52.524;14.104;2023-04-24T03:47:53;99729.50;;;9.69;100.00
3122;BME280;1571;52.524;14.104;2023-04-24T03:50:21;99735.59;;;9.58;100.00
3122;BME280;1571;52.524;14.104;2023-04-24T03:52:49;99732.78;;;9.73;100.00
3122;BME280;1571;52.524;14.104;2023-04-24T03:55:31;99749.97;;;9.67;100.00
3122;BME280;1571;52.524;14.104;2023-04-24T03:57:59;99740.53;;;9.63;100.00
3122;BME280;1571;52.524;14.104;2023-04-24T04:00:27;99739.72;;;9.63;100.00
3122;BME280;1571;52.524;14.104;2023-04-24T04:03:19;99740.19;;;9.92;100.00
3122;BME280;1571;52.524;14.104;2023-04-24T04:05:48;99740.56;;;9.98;100.00
3122;BME280;1571;52.524;14.104;2023-04-24T04:08:17;99742.19;;;10.24;100.00
3122;BME280;1571;52.524;14.104;2023-04-24T04:10:46;99741.13;;;10.37;100.00
3122;BME280;1571;52.524;14.104;2023-04-24T04:13:14;99737.28;;;10.41;100.00
3122;BME280;1571;52.524;14.104;2023-04-24T04:15:43;99735.47;;;10.42;100.00
3122;BME280;1571;52.524;14.104;2023-04-24T04:18:12;99726.78;;;10.62;100.00
3122;BME280;1571;52.524;14.104;2023-04-24T04:20:40;99729.09;;;10.67;100.00
3122;BME280;1571;52.524;14.104;2023-04-24T04:23:11;99726.78;;;10.74;100.00
3122;BME280;1571;52.524;14.104;2023-04-24T04:25:53;99727.03;;;10.71;100.00
3122;BME280;1571;52.524;14.104;2023-04-24T04:28:26;99719.34;;;10.79;100.00
3122;BME280;1571;52.524;14.104;2023-04-24T04:30:54;99717.25;;;10.94;100.00
3122;BME280;1571;52.524;14.104;2023-04-24T04:33:23;99714.00;;;11.01;100.00
3122;BME280;1571;52.524;14.104;2023-04-24T04:35:52;99712.41;;;11.10;100.00
3122;BME280;1571;52.524;14.104;2023-04-24T04:38:21;99713.59;;;11.17;100.00
3122;BME280;1571;52.524;14.104;2023-04-24T04:41:00;99711.06;;;11.16;100.00
3122;BME280;1571;52.524;14.104;2023-04-24T04:43:32;99702.91;;;11.40;100.00
3122;BME280;1571;52.524;14.104;2023-04-24T04:46:01;99699.97;;;11.43;100.00
3122;BME280;1571;52.524;14.104;2023-04-24T04:48:56;99695.44;;;11.55;100.00
3122;BME280;1571;52.524;14.104;2023-04-24T04:51:24;99699.38;;;11.72;100.00
3122;BME280;1571;52.524;14.104;2023-04-24T04:53:52;99704.81;;;11.70;100.00
3122;BME280;1571;52.524;14.104;2023-04-24T04:56:24;99688.47;;;11.54;100.00
3122;BME280;1571;52.524;14.104;2023-04-24T04:58:53;99691.16;;;11.42;100.00
3122;BME280;1571;52.524;14.104;2023-04-24T05:01:21;99693.47;;;11.36;100.00
3122;BME280;1571;52.524;14.104;2023-04-24T05:03:50;99698.41;;;11.40;100.00
3122;BME280;1571;52.524;14.104;2023-04-24T05:06:18;99700.84;;;11.32;100.00
3122;BME280;1571;52.524;14.104;2023-04-24T05:08:50;99699.06;;;11.33;100.00
3122;BME280;1571;52.524;14.104;2023-04-24T05:11:33;99698.41;;;11.40;100.00
3122;BME280;1571;52.524;14.104;2023-04-24T05:14:02;99712.91;;;11.36;100.00
3122;BME280;1571;52.524;14.104;2023-04-24T05:16:38;99696.78;;;11.28;100.00
3122;BME280;1571;52.524;14.104;2023-04-24T05:19:09;99704.22;;;11.34;100.00
3122;BME280;1571;52.524;14.104;2023-04-24T05:21:40;99701.53;;;11.13;100.00
3122;BME280;1571;52.524;14.104;2023-04-24T05:24:09;99710.56;;;11.22;100.00
3122;BME280;1571;52.524;14.104;2023-04-24T05:26:57;99699.94;;;11.54;100.00
3122;BME280;1571;52.524;14.104;2023-04-24T05:29:34;99703.19;;;11.58;100.00
3122;BME280;1571;52.524;14.104;2023-04-24T05:32:04;99691.06;;;11.65;100.00
3122;BME280;1571;52.524;14.104;2023-04-24T05:34:32;99703.19;;;11.58;100.00
3122;BME280;1571;52.524;14.104;2023-04-24T05:37:01;99693.78;;;11.75;100.00
3122;BME280;1571;52.524;14.104;2023-04-24T05:39:29;99699.75;;;11.67;100.00
3122;BME280;1571;52.524;14.104;2023-04-24T05:42:00;99698.22;;;11.85;100.00
3122;BME280;1571;52.524;14.104;2023-04-24T05:44:28;99693.56;;;11.99;100.00
3122;BME280;1571;52.524;14.104;2023-04-24T05:46:58;99690.72;;;11.91;100.00
3122;BME280;1571;52.524;14.104;2023-04-24T05:49:28;99687.53;;;11.97;100.00
3122;BME280;1571;52.524;14.104;2023-04-24T05:51:57;99686.56;;;11.98;100.00
3122;BME280;1571;52.524;14.104;2023-04-24T05:54:25;99690.59;;;11.92;100.00
3122;BME280;1571;52.524;14.104;2023-04-24T05:56:55;99696.44;;;12.07;100.00
3122;BME280;1571;52.524;14.104;2023-04-24T05:59:38;99681.63;;;12.14;100.00
3122;BME280;1571;52.524;14.104;2023-04-24T06:02:07;99690.16;;;12.39;100.00
3122;BME280;1571;52.524;14.104;2023-04-24T06:04:36;99696.34;;;12.49;100.00
3122;BME280;1571;52.524;14.104;2023-04-24T06:07:04;99693.91;;;12.67;100.00
3122;BME280;1571;52.524;14.104;2023-04-24T06:09:33;99695.78;;;12.45;100.00
3122;BME280;1571;52.524;14.104;2023-04-24T06:12:02;99692.19;;;12.56;100.00
3122;BME280;1571;52.524;14.104;2023-04-24T06:14:46;99691.97;;;12.79;100.00
3122;BME280;1571;52.524;14.104;2023-04-24T06:17:19;99678.75;;;12.67;100.00
3122;BME280;1571;52.524;14.104;2023-04-24T06:19:47;99683.63;;;13.03;100.00
3122;BME280;1571;52.524;14.104;2023-04-24T06:22:16;99680.03;;;13.82;100.00
3122;BME280;1571;52.524;14.104;2023-04-24T06:24:44;99678.72;;;14.15;100.00
3122;BME280;1571;52.524;14.104;2023-04-24T06:27:12;99677.03;;;14.51;96.19
3122;BME280;1571;52.524;14.104;2023-04-24T06:29:41;99667.66;;;14.85;93.04
3122;BME280;1571;52.524;14.104;2023-04-24T06:32:11;99666.06;;;14.92;91.71
3122;BME280;1571;52.524;14.104;2023-04-24T06:34:40;99679.88;;;14.87;90.70
3122;BME280;1571;52.524;14.104;2023-04-24T06:37:09;99679.38;;;15.19;88.96
3122;BME280;1571;52.524;14.104;2023-04-24T06:39:37;99674.22;;;15.36;86.74
3122;BME280;1571;52.524;14.104;2023-04-24T06:42:05;99673.06;;;15.38;85.46
3122;BME280;1571;52.524;14.104;2023-04-24T06:44:35;99670.38;;;15.74;83.08
3122;BME280;1571;52.524;14.104;2023-04-24T06:47:08;99679.59;;;15.62;83.34
3122;BME280;1571;52.524;14.104;2023-04-24T06:49:37;99680.53;;;15.35;83.87
3122;BME280;1571;52.524;14.104;2023-04-24T06:52:06;99682.75;;;15.39;81.93
3122;BME280;1571;52.524;14.104;2023-04-24T06:54:34;99682.50;;;15.69;81.75
3122;BME280;1571;52.524;14.104;2023-04-24T06:57:03;99684.34;;;15.86;80.84
3122;BME280;1571;52.524;14.104;2023-04-24T06:59:31;99692.53;;;15.49;81.01
3122;BME280;1571;52.524;14.104;2023-04-24T07:01:59;99702.31;;;15.22;81.09
3122;BME280;1571;52.524;14.104;2023-04-24T07:04:27;99697.09;;;14.75;82.29
3122;BME280;1571;52.524;14.104;2023-04-24T07:06:57;99695.94;;;14.77;82.95
3122;BME280;1571;52.524;14.104;2023-04-24T07:09:26;99697.97;;;14.93;84.06
3122;BME280;1571;52.524;14.104;2023-04-24T07:11:54;99691.72;;;15.03;82.75
3122;BME280;1571;52.524;14.104;2023-04-24T07:14:23;99699.41;;;14.88;82.64
3122;BME280;1571;52.524;14.104;2023-04-24T07:16:51;99703.25;;;15.03;82.50
3122;BME280;1571;52.524;14.104;2023-04-24T07:19:19;99698.75;;;15.04;81.53
3122;BME280;1571;52.524;14.104;2023-04-24T07:21:47;99704.22;;;14.84;80.79
3122;BME280;1571;52.524;14.104;2023-04-24T07:24:17;99708.97;;;14.43;81.32
3122;BME280;1571;52.524;14.104;2023-04-24T07:26:48;99711.72;;;14.24;82.10
3122;BME280;1571;52.524;14.104;2023-04-24T07:29:19;99717.06;;;14.24;82.74
3122;BME280;1571;52.524;14.104;2023-04-24T07:31:47;99719.63;;;14.06;82.90
3122;BME280;1571;52.524;14.104;2023-04-24T07:34:16;99721.03;;;13.90;83.81
3122;BME280;1571;52.524;14.104;2023-04-24T07:36:44;99724.97;;;13.86;84.95
3122;BME280;1571;52.524;14.104;2023-04-24T07:39:12;99723.69;;;13.71;85.01
3122;BME280;1571;52.524;14.104;2023-04-24T07:41:41;99725.69;;;13.79;85.06
3122;BME280;1571;52.524;14.104;2023-04-24T07:44:10;99729.91;;;13.71;85.32
3122;BME280;1571;52.524;14.104;2023-04-24T07:46:38;99723.28;;;13.95;84.06
3122;BME280;1571;52.524;14.104;2023-04-24T07:49:06;99719.31;;;14.09;84.16
3122;BME280;1571;52.524;14.104;2023-04-24T07:51:40;99724.22;;;14.23;83.42
3122;BME280;1571;52.524;14.104;2023-04-24T07:54:09;99727.66;;;14.53;82.34
3122;BME280;1571;52.524;14.104;2023-04-24T07:56:37;99725.78;;;14.73;80.45
3122;BME280;1571;52.524;14.104;2023-04-24T07:59:07;99727.19;;;14.67;79.52
3122;BME280;1571;52.524;14.104;2023-04-24T08:01:36;99732.69;;;14.66;79.50
3122;BME280;1571;52.524;14.104;2023-04-24T08:04:05;99738.09;;;14.36;81.07
3122;BME280;1571;52.524;14.104;2023-04-24T08:06:34;99733.41;;;14.58;80.56
3122;BME280;1571;52.524;14.104;2023-04-24T08:09:02;99724.78;;;14.74;79.95
3122;BME280;1571;52.524;14.104;2023-04-24T08:11:30;99726.09;;;15.43;78.45
3122;BME280;1571;52.524;14.104;2023-04-24T08:13:59;99720.88;;;15.59;76.69
3122;BME280;1571;52.524;14.104;2023-04-24T08:16:29;99720.41;;;15.64;76.76
3122;BME280;1571;52.524;14.104;2023-04-24T08:18:57;99715.09;;;15.82;74.57
3122;BME280;1571;52.524;14.104;2023-04-24T08:21:25;99709.78;;;16.08;73.76
3122;BME280;1571;52.524;14.104;2023-04-24T08:23:54;99710.84;;;16.41;73.68
3122;BME280;1571;52.524;14.104;2023-04-24T08:26:22;99705.06;;;16.28;72.44
3122;BME280;1571;52.524;14.104;2023-04-24T08:28:50;99698.66;;;16.47;70.70
3122;BME280;1571;52.524;14.104;2023-04-24T08:31:18;99699.69;;;16.54;69.42
3122;BME280;1571;52.524;14.104;2023-04-24T08:33:48;99706.63;;;16.39;69.94
3122;BME280;1571;52.524;14.104;2023-04-24T08:36:16;99711.88;;;15.96;70.93
3122;BME280;1571;52.524;14.104;2023-04-24T08:38:44;99708.81;;;15.91;70.47
3122;BME280;1571;52.524;14.104;2023-04-24T08:41:14;99710.81;;;15.89;71.34
3122;BME280;1571;52.524;14.104;2023-04-24T08:43:42;99704.47;;;15.90;70.99
3122;BME280;1571;52.524;14.104;2023-04-24T08:46:11;99709.44;;;15.85;71.14
3122;BME280;1571;52.524;14.104;2023-04-24T08:48:40;99708.63;;;16.11;70.91
3122;BME280;1571;52.524;14.104;2023-04-24T08:51:10;99706.63;;;16.39;69.96
3122;BME280;1571;52.524;14.104;2023-04-24T08:53:38;99716.59;;;16.55;70.47
3122;BME280;1571;52.524;14.104;2023-04-24T08:56:07;99715.66;;;16.64;70.41
3122;BME280;1571;52.524;14.104;2023-04-24T08:58:35;99702.06;;;16.92;68.16
3122;BME280;1571;52.524;14.104;2023-04-24T09:01:04;99703.72;;;16.93;67.33
3122;BME280;1571;52.524;14.104;2023-04-24T09:03:32;99717.31;;;16.65;69.68
3122;BME280;1571;52.524;14.104;2023-04-24T09:06:02;99711.56;;;16.52;68.49
3122;BME280;1571;52.524;14.104;2023-04-24T09:08:32;99700.41;;;16.99;66.62
3122;BME280;1571;52.524;14.104;2023-04-24T09:11:01;99704.06;;;16.90;66.92
3122;BME280;1571;52.524;14.104;2023-04-24T09:13:31;99682.91;;;17.54;64.04
3122;BME280;1571;52.524;14.104;2023-04-24T09:16:00;99678.25;;;17.97;62.33
3122;BME280;1571;52.524;14.104;2023-04-24T09:18:28;99693.88;;;17.93;61.73
3122;BME280;1571;52.524;14.104;2023-04-24T09:20:57;99690.16;;;18.10;60.64
3122;BME280;1571;52.524;14.104;2023-04-24T09:23:27;99688.50;;;17.93;59.32
3122;BME280;1571;52.524;14.104;2023-04-24T09:25:58;99701.03;;;17.60;60.08
3122;BME280;1571;52.524;14.104;2023-04-24T09:28:30;99696.91;;;17.90;59.13
3122;BME280;1571;52.524;14.104;2023-04-24T09:31:03;99702.25;;;17.82;59.39
3122;BME280;1571;52.524;14.104;2023-04-24T09:33:31;99700.41;;;17.82;57.93
3122;BME280;1571;52.524;14.104;2023-04-24T09:35:59;99700.94;;;17.86;58.10
3122;BME280;1571;52.524;14.104;2023-04-24T09:38:31;99716.31;;;17.59;59.03
3122;BME280;1571;52.524;14.104;2023-04-24T09:41:02;99712.78;;;17.67;59.29
3122;BME280;1571;52.524;14.104;2023-04-24T09:43:31;99720.03;;;17.75;60.35
3122;BME280;1571;52.524;14.104;2023-04-24T09:46:05;99724.91;;;17.96;60.75
3122;BME280;1571;52.524;14.104;2023-04-24T09:48:35;99697.06;;;18.77;58.15
3122;BME280;1571;52.524;14.104;2023-04-24T09:51:05;99701.44;;;18.70;58.09
3122;BME280;1571;52.524;14.104;2023-04-24T09:53:34;99696.22;;;18.68;57.17
3122;BME280;1571;52.524;14.104;2023-04-24T09:56:09;99705.53;;;18.41;57.05
3122;BME280;1571;52.524;14.104;2023-04-24T09:58:39;99699.84;;;18.28;57.57
3122;BME280;1571;52.524;14.104;2023-04-24T10:01:07;99715.69;;;17.98;58.81
3122;BME280;1571;52.524;14.104;2023-04-24T10:03:36;99705.75;;;18.23;57.49
3122;BME280;1571;52.524;14.104;2023-04-24T10:06:04;99719.31;;;17.81;58.60
3122;BME280;1571;52.524;14.104;2023-04-24T10:08:36;99715.00;;;18.13;57.90
3122;BME280;1571;52.524;14.104;2023-04-24T10:11:05;99704.25;;;18.21;58.01
3122;BME280;1571;52.524;14.104;2023-04-24T10:13:35;99705.22;;;18.44;55.75
3122;BME280;1571;52.524;14.104;2023-04-24T10:16:04;99696.50;;;18.26;54.54
3122;BME280;1571;52.524;14.104;2023-04-24T10:18:33;99699.88;;;18.20;55.37
3122;BME280;1571;52.524;14.104;2023-04-24T10:21:02;99701.56;;;18.21;55.50
3122;BME280;1571;52.524;14.104;2023-04-24T10:23:30;99697.03;;;18.13;55.67
3122;BME280;1571;52.524;14.104;2023-04-24T10:25:59;99706.41;;;17.76;56.77
3122;BME280;1571;52.524;14.104;2023-04-24T10:28:30;99708.31;;;17.84;57.16
3122;BME280;1571;52.524;14.104;2023-04-24T10:30:59;99710.63;;;17.79;57.97
3122;BME280;1571;52.524;14.104;2023-04-24T10:33:29;99712.94;;;17.57;58.27
3122;BME280;1571;52.524;14.104;2023-04-24T10:35:58;99710.97;;;17.67;58.30
3122;BME280;1571;52.524;14.104;2023-04-24T10:38:28;99711.78;;;17.76;57.14
3122;BME280;1571;52.524;14.104;2023-04-24T10:41:06;99720.69;;;17.68;57.89
3122;BME280;1571;52.524;14.104;2023-04-24T10:43:36;99703.03;;;17.58;57.79
3122;BME280;1571;52.524;14.104;2023-04-24T10:46:06;99713.97;;;17.64;57.99
3122;BME280;1571;52.524;14.104;2023-04-24T10:48:35;99707.25;;;17.60;57.76
3122;BME280;1571;52.524;14.104;2023-04-24T10:51:04;99704.44;;;17.95;56.55
3122;BME280;1571;52.524;14.104;2023-04-24T10:53:34;99703.59;;;17.94;56.13
3122;BME280;1571;52.524;14.104;2023-04-24T10:56:04;99710.63;;;18.03;56.44
3122;BME280;1571;52.524;14.104;2023-04-24T10:58:37;99712.31;;;17.96;57.34
3122;BME280;1571;52.524;14.104;2023-04-24T11:01:08;99717.19;;;18.01;57.70
3122;BME280;1571;52.524;14.104;2023-04-24T11:03:37;99705.13;;;17.88;56.85
3122;BME280;1571;52.524;14.104;2023-04-24T11:06:09;99725.31;;;17.42;58.23
3122;BME280;1571;52.524;14.104;2023-04-24T11:08:42;99729.13;;;17.15;58.57
3122;BME280;1571;52.524;14.104;2023-04-24T11:11:12;99739.72;;;16.82;60.84
3122;BME280;1571;52.524;14.104;2023-04-24T11:14:03;99738.88;;;16.81;61.38
3122;BME280;1571;52.524;14.104;2023-04-24T11:16:37;99751.19;;;16.74;62.23
3122;BME280;1571;52.524;14.104;2023-04-24T11:19:08;99746.44;;;16.60;62.00
3122;BME280;1571;52.524;14.104;2023-04-24T11:21:41;99750.75;;;16.53;62.59
3122;BME280;1571;52.524;14.104;2023-04-24T11:24:31;99747.16;;;16.70;62.37
3122;BME280;1571;52.524;14.104;2023-04-24T11:27:06;99737.19;;;16.80;61.01
3122;BME280;1571;52.524;14.104;2023-04-24T11:29:42;99751.59;;;16.79;62.00
3122;BME280;1571;52.524;14.104;2023-04-24T11:32:17;99742.56;;;16.80;62.06
3122;BME280;1571;52.524;14.104;2023-04-24T11:34:50;99738.88;;;16.81;61.38
3122;BME280;1571;52.524;14.104;2023-04-24T11:37:19;99738.03;;;16.81;61.88
3122;BME280;1571;52.524;14.104;2023-04-24T11:39:50;99744.06;;;16.57;63.83
3122;BME280;1571;52.524;14.104;2023-04-24T11:42:20;99733.34;;;16.57;63.10
3122;BME280;1571;52.524;14.104;2023-04-24T11:44:49;99740.16;;;16.77;63.82
3122;BME280;1571;52.524;14.104;2023-04-24T11:47:18;99719.91;;;17.17;63.51
3122;BME280;1571;52.524;14.104;2023-04-24T11:49:50;99708.94;;;17.61;62.76
3122;BME280;1571;52.524;14.104;2023-04-24T11:52:19;99697.19;;;17.71;61.97
3122;BME280;1571;52.524;14.104;2023-04-24T11:54:48;99700.88;;;17.69;62.13
3122;BME280;1571;52.524;14.104;2023-04-24T11:57:19;99689.66;;;18.07;61.34
3122;BME280;1571;52.524;14.104;2023-04-24T11:59:49;99697.00;;;18.21;60.21
3122;BME280;1571;52.524;14.104;2023-04-24T12:02:23;99702.31;;;18.62;60.53
3122;BME280;1571;52.524;14.104;2023-04-24T12:04:52;99698.09;;;18.60;60.09
3122;BME280;1571;52.524;14.104;2023-04-24T12:07:21;99691.34;;;18.64;60.66
3122;BME280;1571;52.524;14.104;2023-04-24T12:09:55;99696.88;;;18.06;60.73
3122;BME280;1571;52.524;14.104;2023-04-24T12:12:26;99685.75;;;18.26;60.69
3122;BME280;1571;52.524;14.104;2023-04-24T12:14:56;99699.53;;;17.74;60.87
3122;BME280;1571;52.524;14.104;2023-04-24T12:17:29;99706.69;;;17.16;62.25
3122;BME280;1571;52.524;14.104;2023-04-24T12:19:59;99695.16;;;17.32;61.49
3122;BME280;1571;52.524;14.104;2023-04-24T12:22:43;99688.81;;;17.65;60.89
3122;BME280;1571;52.524;14.104;2023-04-24T12:25:13;99678.91;;;18.07;60.60
3122;BME280;1571;52.524;14.104;2023-04-24T12:27:42;99681.78;;;17.97;60.91
3122;BME280;1571;52.524;14.104;2023-04-24T12:30:12;99685.78;;;18.09;61.59
3122;BME280;1571;52.524;14.104;2023-04-24T12:32:43;99678.78;;;17.84;59.86
3122;BME280;1571;52.524;14.104;2023-04-24T12:35:11;99677.03;;;17.58;60.64
3122;BME280;1571;52.524;14.104;2023-04-24T12:37:42;99689.28;;;17.44;61.62
3122;BME280;1571;52.524;14.104;2023-04-24T12:40:13;99688.25;;;17.21;62.16
3122;BME280;1571;52.524;14.104;2023-04-24T12:42:44;99693.75;;;17.19;61.03
3122;BME280;1571;52.524;14.104;2023-04-24T12:45:14;99689.09;;;17.38;61.03
3122;BME280;1571;52.524;14.104;2023-04-24T12:47:44;99683.09;;;17.52;60.26
3122;BME280;1571;52.524;14.104;2023-04-24T12:50:14;99686.63;;;17.61;61.31
3122;BME280;1571;52.524;14.104;2023-04-24T12:52:43;99699.09;;;17.03;65.38
3122;BME280;1571;52.524;14.104;2023-04-24T12:55:12;99695.63;;;17.27;65.09
3122;BME280;1571;52.524;14.104;2023-04-24T12:57:40;99695.63;;;17.19;65.63
3122;BME280;1571;52.524;14.104;2023-04-24T13:00:09;99685.09;;;17.42;62.96
3122;BME280;1571;52.524;14.104;2023-04-24T13:02:38;99677.44;;;17.88;61.64
3122;BME280;1571;52.524;14.104;2023-04-24T13:05:08;99675.41;;;17.98;60.10
3122;BME280;1571;52.524;14.104;2023-04-24T13:07:38;99664.41;;;18.41;58.23
3122;BME280;1571;52.524;14.104;2023-04-24T13:10:07;99657.22;;;18.17;57.29
3122;BME280;1571;52.524;14.104;2023-04-24T13:12:36;99640.00;;;17.95;56.70
3122;BME280;1571;52.524;14.104;2023-04-24T13:15:06;99647.50;;;18.24;57.07
3122;BME280;1571;52.524;14.104;2023-04-24T13:17:34;99651.53;;;18.20;57.15
3122;BME280;1571;52.524;14.104;2023-04-24T13:20:03;99640.06;;;18.34;56.59
3122;BME280;1571;52.524;14.104;2023-04-24T13:22:33;99640.59;;;18.21;55.84
3122;BME280;1571;52.524;14.104;2023-04-24T13:25:02;99644.78;;;18.32;56.15